Time;durP1;ratioP1;P1;durP2;ratioP2;P2;SDS_P1;SDS_P2;PMS_P1;PMS_P2;Temp;Humidity;BMP_temperature;BMP_pressure;BME280_temperature;BME280_humidity;BME280_pressure;Samples;Min_cycle;Max_cycle;Signal;HPM_P1;HPM_P2
2022/12/04 00:01:25;;;;;;;16.32;9.50;;;;;;;0.87;77.38;102934.69;1710429;82;27449;-61
2022/12/04 00:03:59;;;;;;;19.48;9.35;;;;;;;0.92;77.68;102931.09;1728499;81;25489;-61
2022/12/04 00:06:27;;;;;;;19.52;10.05;;;;;;;0.98;77.49;102927.91;1743943;81;25721;-61
2022/12/04 00:08:54;;;;;;;15.20;8.95;;;;;;;0.96;77.03;102934.56;1722482;83;26484;-61
2022/12/04 00:11:29;;;;;;;17.80;9.80;;;;;;;0.94;76.77;102933.23;1735013;81;25751;-61
2022/12/04 00:13:55;;;;;;;;;;;;;;;0.92;76.53;102940.36;1755015;81;27476;-61
2022/12/04 00:16:25;;;;;;;16.17;8.90;;;;;;;0.82;76.26;102936.50;1713664;82;25895;-61
2022/12/04 00:18:53;;;;;;;18.55;9.73;;;;;;;0.76;76.21;102941.45;1726230;81;25819;-62
2022/12/04 00:21:24;;;;;;;16.73;9.48;;;;;;;0.71;76.22;102938.87;1710342;82;25853;-61
2022/12/04 00:26:23;;;;;;;18.42;9.20;;;;;;;0.76;76.42;102930.86;1872271;76;25604;-62
2022/12/04 00:28:51;;;;;;;17.62;10.50;;;;;;;0.72;76.58;102937.94;1855756;77;25743;-62
2022/12/04 00:31:23;;;;;;;17.85;9.33;;;;;;;0.68;76.55;102944.19;1851266;77;27575;-62
2022/12/04 00:33:51;;;;;;;16.10;8.75;;;;;;;0.67;76.64;102950.84;1846188;76;25735;-62
2022/12/04 00:36:26;;;;;;;18.48;9.25;;;;;;;0.67;76.64;102950.84;1794307;78;25843;-62
2022/12/04 00:38:54;;;;;;;16.90;9.20;;;;;;;0.60;76.64;102945.59;1834363;77;25768;-62
2022/12/04 00:41:27;;;;;;;14.05;8.48;;;;;;;0.57;76.79;102940.78;1823713;77;25493;-62
2022/12/04 00:43:58;;;;;;;16.10;9.05;;;;;;;0.54;76.77;102950.11;1816450;79;27511;-60
2022/12/04 00:46:28;;;;;;;17.12;9.05;;;;;;;0.51;76.70;102943.05;1851150;77;25502;-62
2022/12/04 00:48:55;;;;;;;19.12;9.38;;;;;;;0.44;76.72;102944.02;1850492;77;25720;-62
2022/12/04 00:51:26;;;;;;;16.52;9.00;;;;;;;0.34;76.81;102948.55;1814092;77;26303;-62
2022/12/04 00:53:54;;;;;;;17.25;9.93;;;;;;;0.33;76.95;102941.92;1820885;77;25709;-61
2022/12/04 00:56:25;;;;;;;18.07;10.58;;;;;;;0.30;76.94;102946.39;1833263;77;28160;-62
2022/12/04 00:58:55;;;;;;;18.10;9.28;;;;;;;0.26;77.06;102943.78;1857055;77;25803;-61
2022/12/04 01:01:27;;;;;;;17.48;10.18;;;;;;;0.23;77.17;102942.02;1853473;77;25838;-62
2022/12/04 01:03:55;;;;;;;17.67;9.40;;;;;;;0.22;77.32;102938.08;1851431;77;25825;-61
2022/12/04 01:06:29;;;;;;;20.92;10.23;;;;;;;0.22;77.35;102943.38;1817456;77;25476;-62
2022/12/04 01:09:02;;;;;;;19.60;9.10;;;;;;;0.22;77.41;102938.97;1806923;78;28492;-61
2022/12/04 01:11:37;;;;;;;17.05;9.15;;;;;;;0.21;77.58;102935.00;1802777;77;26343;-61
2022/12/04 01:14:00;;;;;;;20.95;9.48;;;;;;;0.20;77.59;102935.88;1775136;79;25457;-61
2022/12/04 01:16:32;;;;;;;21.23;9.78;;;;;;;0.22;77.54;102935.00;1792889;79;25799;-61
2022/12/04 01:19:03;;;;;;;17.27;8.85;;;;;;;0.24;77.52;102937.63;1760873;80;26595;-62
2022/12/04 01:21:30;;;;;;;15.75;9.03;;;;;;;0.21;77.55;102931.92;1800080;78;28470;-61
2022/12/04 01:24:00;;;;;;;17.12;9.90;;;;;;;0.16;77.60;102921.80;1763137;81;25822;-60
2022/12/04 01:26:27;;;;;;;17.82;9.08;;;;;;;0.13;77.70;102930.66;1801961;79;25869;-61
2022/12/04 01:28:54;;;;;;;19.25;10.03;;;;;;;0.14;77.82;102930.20;1814354;79;25773;-60
2022/12/04 01:31:25;;;;;;;22.60;9.90;;;;;;;0.15;77.70;102927.56;1814572;78;25735;-60
2022/12/04 01:33:52;;;;;;;16.10;9.13;;;;;;;0.13;77.74;102925.37;1794494;78;27318;-62
2022/12/04 01:36:24;;;;;;;21.70;10.05;;;;;;;0.13;77.77;102921.86;1761823;80;25840;-61
2022/12/04 01:38:51;;;;;;;19.23;9.50;;;;;;;0.12;77.76;102918.78;1777437;80;25900;-62
2022/12/04 01:41:23;;;;;;;17.00;8.98;;;;;;;0.16;77.75;102920.48;1793429;80;25726;-61
2022/12/04 01:44:18;;;;;;;18.23;9.38;;;;;;;0.20;77.52;102922.22;1793216;80;26422;-62
2022/12/04 01:46:57;;;;;;;17.70;10.55;;;;;;;0.20;77.47;102916.92;1764495;80;27662;-61
2022/12/04 01:49:39;;;;;;;20.37;9.68;;;;;;;0.23;77.38;102918.66;1760831;80;25737;-61
2022/12/04 01:52:20;;;;;;;15.75;9.35;;;;;;;0.25;77.30;102926.14;1761873;80;25734;-61
2022/12/04 01:54:54;;;;;;;21.00;9.50;;;;;;;0.21;77.45;102925.30;1766549;80;25865;-62
2022/12/04 01:57:24;;;;;;;;;;;;;;;0.23;77.34;102931.44;1764576;80;25821;-61
2022/12/04 02:00:01;;;;;;;19.62;8.78;;;;;;;0.22;77.27;102919.12;1785430;80;27483;-62
2022/12/04 02:02:35;;;;;;;18.60;9.13;;;;;;;0.22;77.32;102920.88;1792116;79;25832;-62
2022/12/04 02:05:05;;;;;;;18.95;9.85;;;;;;;0.20;77.46;102916.92;1792892;79;25947;-62
2022/12/04 02:07:36;;;;;;;19.67;10.10;;;;;;;0.21;77.53;102916.47;1793186;80;25684;-62
2022/12/04 02:10:07;;;;;;;20.62;9.98;;;;;;;0.24;77.46;102919.95;1764986;80;26525;-62
2022/12/04 02:13:12;;;;;;;22.42;10.15;;;;;;;0.23;77.42;102923.49;1768814;80;27487;-61
2022/12/04 02:16:14;;;;;;;20.97;10.40;;;;;;;0.22;77.59;102922.19;1792014;80;25999;-62
2022/12/04 02:18:52;;;;;;;20.43;9.93;;;;;;;0.20;77.85;102919.57;1769559;80;25742;-61
2022/12/04 02:21:35;;;;;;;21.65;9.63;;;;;;;0.19;78.16;102921.78;1787633;80;25861;-61
2022/12/04 02:24:40;;;;;;;22.58;10.63;;;;;;;0.22;78.28;102924.84;1792002;80;25858;-61
2022/12/04 02:27:40;;;;;;;20.05;9.95;;;;;;;0.21;78.30;102925.30;1768430;80;27073;-62
2022/12/04 02:30:11;;;;;;;19.55;10.13;;;;;;;0.23;78.46;102930.57;1763678;80;25854;-61
2022/12/04 02:32:49;;;;;;;18.62;10.10;;;;;;;0.24;78.58;102927.03;1794297;78;25594;-62
2022/12/04 02:35:44;;;;;;;23.27;11.20;;;;;;;0.23;78.55;102930.11;1773370;80;25699;-61
2022/12/04 02:38:33;;;;;;;19.95;10.18;;;;;;;0.27;78.63;102937.14;1761849;80;25757;-62
2022/12/04 02:41:21;;;;;;;22.35;11.28;;;;;;;0.34;78.54;102932.66;1760906;80;26318;-61
2022/12/04 02:43:55;;;;;;;24.05;10.38;;;;;;;0.36;78.55;102933.50;1751541;80;25919;-61
2022/12/04 02:46:29;;;;;;;24.60;10.75;;;;;;;0.39;78.47;102937.45;1791940;80;25732;-62
2022/12/04 02:49:01;;;;;;;22.32;8.78;;;;;;;0.36;78.42;102933.50;1790396;80;25693;-62
2022/12/04 02:51:32;;;;;;;17.52;10.55;;;;;;;0.33;78.29;102933.55;1772581;80;25988;-62
2022/12/04 02:54:11;;;;;;;20.68;10.45;;;;;;;0.29;78.38;102934.03;1779680;80;28604;-62
2022/12/04 02:56:45;;;;;;;19.55;10.85;;;;;;;0.29;78.48;102928.74;1767817;80;25731;-62
2022/12/04 02:59:32;;;;;;;19.70;10.23;;;;;;;0.29;78.59;102923.45;1762275;80;25743;-62
2022/12/04 03:02:07;;;;;;;22.73;10.05;;;;;;;0.29;78.36;102927.84;1777437;80;25757;-62
2022/12/04 03:04:38;;;;;;;25.48;10.30;;;;;;;0.26;78.33;102938.03;1791748;79;25734;-60
2022/12/04 03:07:13;;;;;;;23.65;9.83;;;;;;;0.26;78.37;102940.67;1793399;80;27490;-61
2022/12/04 03:09:51;;;;;;;21.68;9.78;;;;;;;0.26;78.38;102938.03;1792893;80;25627;-60
2022/12/04 03:12:23;;;;;;;17.73;9.03;;;;;;;0.24;78.46;102930.55;1787662;80;25814;-61
2022/12/04 03:14:57;;;;;;;22.05;9.43;;;;;;;0.25;78.51;102933.62;1760131;80;25872;-61
2022/12/04 03:17:44;;;;;;;17.77;9.58;;;;;;;0.26;78.53;102933.20;1780926;80;25450;-61
2022/12/04 03:20:14;;;;;;;22.42;8.98;;;;;;;0.24;78.61;102930.55;1784603;80;27499;-61
2022/12/04 03:22:45;;;;;;;17.55;8.65;;;;;;;0.26;78.53;102923.93;1775812;80;25841;-61
2022/12/04 03:25:12;;;;;;;16.07;8.65;;;;;;;0.28;78.52;102924.77;1788728;79;25745;-61
2022/12/04 03:28:00;;;;;;;19.67;9.30;;;;;;;0.29;78.46;102929.17;1760006;81;25913;-61
2022/12/04 03:30:32;;;;;;;15.32;7.85;;;;;;;0.28;78.34;102926.98;1750522;80;25785;-61
2022/12/04 03:33:19;;;;;;;32.33;9.08;;;;;;;0.33;77.98;102929.58;1766576;81;27626;-61
2022/12/04 03:36:03;;;;;;;17.32;9.85;;;;;;;0.30;77.90;102927.85;1765164;80;26914;-61
2022/12/04 03:38:47;;;;;;;21.17;9.55;;;;;;;0.27;77.89;102927.02;1765988;81;25796;-61
2022/12/04 03:41:31;;;;;;;18.37;9.90;;;;;;;0.20;77.87;102927.52;1766804;81;25476;-61
2022/12/04 03:44:14;;;;;;;25.15;9.60;;;;;;;0.16;78.08;102925.78;1731477;81;25814;-61
2022/12/04 03:46:52;;;;;;;27.20;10.08;;;;;;;0.14;78.06;102918.29;1759429;80;27707;-61
2022/12/04 03:49:24;;;;;;;24.57;9.38;;;;;;;0.14;78.06;102927.13;1735632;80;25823;-61
2022/12/04 03:51:59;;;;;;;17.30;8.25;;;;;;;0.17;78.01;102937.27;1768099;81;25702;-61
2022/12/04 03:54:39;;;;;;;25.50;9.23;;;;;;;0.18;77.98;102934.59;1749164;81;25530;-61
2022/12/04 03:57:12;;;;;;;18.62;9.78;;;;;;;0.21;77.84;102942.51;1765811;81;25519;-61
2022/12/04 03:59:53;;;;;;;18.73;9.00;;;;;;;0.20;77.70;102940.75;1768988;81;27536;-61
2022/12/04 04:02:23;;;;;;;22.15;9.48;;;;;;;0.24;77.62;102941.13;1770241;79;25769;-61
2022/12/04 04:04:54;;;;;;;15.98;8.63;;;;;;;0.22;77.79;102936.33;1770673;79;25753;-61
2022/12/04 04:07:29;;;;;;;19.42;10.43;;;;;;;0.27;77.74;102939.78;1766433;79;25797;-61
2022/12/04 04:10:01;;;;;;;23.15;8.55;;;;;;;0.27;77.87;102939.78;1764978;81;25871;-61
2022/12/04 04:12:32;;;;;;;25.65;9.55;;;;;;;0.25;77.86;102938.05;1779859;80;27467;-61
2022/12/04 04:26:37;;;;;;;21.45;9.50;;;;;;;0.21;78.40;102945.58;1767348;80;27485;-61
2022/12/04 04:29:04;;;;;;;18.30;8.80;;;;;;;0.19;78.49;102945.61;1770208;80;25724;-61
2022/12/04 04:31:58;;;;;;;18.87;8.88;;;;;;;0.18;78.43;102944.31;1783478;80;25738;-61
2022/12/04 04:34:33;;;;;;;22.87;9.93;;;;;;;0.15;78.37;102939.47;1790275;80;25594;-61
2022/12/04 04:37:45;;;;;;;25.68;11.03;;;;;;;0.10;78.45;102941.73;1790241;80;25496;-61
2022/12/04 04:40:35;;;;;;;27.00;9.05;;;;;;;0.10;78.65;102945.23;1788448;80;28393;-61
2022/12/04 04:43:31;;;;;;;26.25;10.20;;;;;;;0.06;78.80;102946.17;1788233;79;25908;-60
2022/12/04 04:46:19;;;;;;;20.32;11.08;;;;;;;0.05;78.84;102944.84;1790527;80;25837;-61
2022/12/04 04:48:53;;;;;;;29.18;10.80;;;;;;;0.04;79.28;102953.70;1766583;80;26438;-61
2022/12/04 04:51:20;;;;;;;25.02;9.88;;;;;;;0.00;79.17;102954.19;1784882;80;25992;-61
2022/12/04 04:53:52;;;;;;;18.27;9.25;;;;;;;-0.02;79.46;102951.98;1786876;80;27655;-61
2022/12/04 04:56:20;;;;;;;22.07;10.23;;;;;;;-0.01;79.51;102944.48;1789890;80;26424;-60
2022/12/04 04:58:47;;;;;;;20.68;8.80;;;;;;;0.02;79.75;102947.08;1783567;80;25634;-61
2022/12/04 05:01:18;;;;;;;15.98;8.95;;;;;;;0.03;79.64;102944.01;1773246;80;26132;-60
2022/12/04 05:03:45;;;;;;;23.98;9.60;;;;;;;0.02;79.66;102944.90;1757505;80;25775;-61
2022/12/04 05:06:13;;;;;;;19.52;9.38;;;;;;;0.03;79.69;102935.61;1782138;79;28378;-61
2022/12/04 05:08:40;;;;;;;24.95;9.48;;;;;;;0.09;79.73;102941.30;1781954;80;27386;-61
2022/12/04 05:11:11;;;;;;;26.15;9.98;;;;;;;0.07;79.55;102946.61;1784791;80;25763;-61
2022/12/04 05:13:37;;;;;;;20.77;8.70;;;;;;;0.09;79.43;102946.13;1785455;80;25741;-61
2022/12/04 05:16:09;;;;;;;22.20;9.68;;;;;;;0.12;79.48;102950.08;1786008;80;25797;-60
2022/12/04 05:18:36;;;;;;;17.25;9.05;;;;;;;0.14;79.24;102952.27;1783010;80;28283;-60
2022/12/04 05:21:14;;;;;;;27.62;10.93;;;;;;;0.15;78.92;102947.84;1780267;80;25769;-60
2022/12/04 05:23:41;;;;;;;23.07;10.65;;;;;;;0.12;78.81;102952.73;1760493;80;25516;-60
2022/12/04 05:26:12;;;;;;;22.30;10.68;;;;;;;0.13;78.72;102957.12;1772894;80;25741;-60
2022/12/04 05:28:41;;;;;;;21.80;10.32;;;;;;;0.14;78.75;102956.24;1774035;80;25794;-60
2022/12/04 05:31:10;;;;;;;19.48;9.85;;;;;;;0.15;78.79;102963.30;1785206;78;27473;-61
2022/12/04 05:33:36;;;;;;;18.48;9.68;;;;;;;0.19;78.90;102956.63;1775584;80;26534;-61
2022/12/04 05:36:09;;;;;;;23.27;10.65;;;;;;;0.23;78.76;102953.07;1756385;81;25814;-61
2022/12/04 05:38:36;;;;;;;22.22;9.95;;;;;;;0.24;78.67;102954.83;1788183;80;25768;-62
2022/12/04 05:41:05;;;;;;;24.35;10.60;;;;;;;0.25;78.67;102964.06;1790599;80;25729;-62
2022/12/04 05:43:33;;;;;;;24.80;10.58;;;;;;;0.27;78.59;102966.72;1788907;80;27459;-60
2022/12/04 05:46:03;;;;;;;26.77;11.25;;;;;;;0.29;78.40;102963.16;1759497;80;25835;-61
2022/12/04 05:48:34;;;;;;;20.27;10.32;;;;;;;0.30;78.20;102964.92;1756772;80;25775;-62
2022/12/04 05:51:08;;;;;;;22.93;8.80;;;;;;;0.33;78.23;102964.00;1755644;81;25714;-61
2022/12/04 05:53:35;;;;;;;22.58;9.08;;;;;;;0.36;78.20;102977.19;1765083;80;26499;-61
2022/12/04 05:56:05;;;;;;;22.40;9.13;;;;;;;0.35;78.04;102976.78;1789824;80;26904;-61
2022/12/04 05:58:35;;;;;;;21.17;10.82;;;;;;;0.34;77.79;102975.03;1789723;80;25773;-61
2022/12/04 06:01:16;;;;;;;29.90;11.68;;;;;;;0.29;77.82;102972.43;1771344;80;25808;-61
2022/12/04 06:03:43;;;;;;;20.55;9.83;;;;;;;0.24;77.78;102973.36;1786496;80;26120;-61
2022/12/04 06:06:17;;;;;;;25.45;10.72;;;;;;;0.19;77.68;102981.77;1787765;80;26049;-61
2022/12/04 06:08:44;;;;;;;;;;;;;;;0.20;77.81;102988.40;1788300;80;27486;-61
2022/12/04 06:11:18;;;;;;;18.67;9.55;;;;;;;0.21;77.73;102991.48;1790884;80;25761;-61
2022/12/04 06:13:47;;;;;;;22.42;10.48;;;;;;;0.19;77.76;102984.42;1768095;80;25731;-61
2022/12/04 06:16:21;;;;;;;24.45;9.90;;;;;;;0.14;77.95;102989.75;1790924;78;26113;-61
2022/12/04 06:18:53;;;;;;;23.00;10.60;;;;;;;0.13;78.09;102987.57;1783822;78;25684;-61
2022/12/04 06:21:22;;;;;;;40.83;9.80;;;;;;;0.17;78.18;102984.91;1786329;78;28127;-61
2022/12/04 06:23:49;;;;;;;17.67;9.78;;;;;;;0.21;78.00;102987.52;1818079;78;25792;-61
2022/12/04 06:26:17;;;;;;;20.30;9.48;;;;;;;0.21;77.63;102981.32;1811001;78;25788;-61
2022/12/04 06:28:43;;;;;;;30.23;10.90;;;;;;;0.23;77.66;102973.78;1766024;81;25874;-61
2022/12/04 06:31:13;;;;;;;19.52;9.45;;;;;;;0.24;77.65;102973.36;1771415;81;25490;-61
2022/12/04 06:33:41;;;;;;;19.25;9.63;;;;;;;0.31;77.72;102978.56;1770472;81;27556;-61
2022/12/04 06:36:15;;;;;;;18.00;9.45;;;;;;;0.33;77.67;102971.95;1770223;81;26174;-62
2022/12/04 06:38:43;;;;;;;26.15;11.10;;;;;;;0.32;77.46;102979.45;1762448;81;25761;-61
2022/12/04 06:41:13;;;;;;;21.37;10.32;;;;;;;0.34;77.34;102984.72;1762598;81;25763;-61
2022/12/04 06:43:41;;;;;;;27.25;10.15;;;;;;;0.36;77.32;102990.43;1759656;81;25852;-61
2022/12/04 06:46:15;;;;;;;22.50;9.88;;;;;;;0.38;77.16;102990.44;1762425;81;27422;-61
2022/12/04 06:48:42;;;;;;;19.82;9.45;;;;;;;0.38;77.20;102994.41;1752189;81;26039;-61
2022/12/04 06:51:20;;;;;;;20.02;10.58;;;;;;;0.37;77.09;102988.67;1769992;81;25637;-62
2022/12/04 06:53:47;;;;;;;14.95;8.30;;;;;;;0.36;77.18;102990.89;1768481;81;26570;-61
2022/12/04 06:56:18;;;;;;;26.25;10.30;;;;;;;0.36;77.35;102990.43;1770455;79;25774;-61
2022/12/04 06:58:47;;;;;;;24.98;11.05;;;;;;;0.36;77.38;102990.43;1754837;81;29690;-61
2022/12/04 07:01:18;;;;;;;23.57;10.50;;;;;;;0.36;77.31;102992.22;1756044;81;25891;-61
2022/12/04 07:03:46;;;;;;;22.07;9.70;;;;;;;0.31;77.38;103004.17;1754760;80;25699;-61
2022/12/04 07:06:20;;;;;;;19.60;9.53;;;;;;;0.31;77.51;103001.06;1758719;80;25787;-62
2022/12/04 07:08:50;;;;;;;20.68;10.85;;;;;;;0.35;77.59;102994.00;1765646;79;25894;-61
2022/12/04 07:11:19;;;;;;;22.90;10.93;;;;;;;0.37;77.59;102990.86;1759683;79;27276;-61
2022/12/04 07:13:49;;;;;;;23.47;11.73;;;;;;;0.45;77.59;102993.45;1764382;80;26501;-61
2022/12/04 07:16:19;;;;;;;25.88;10.82;;;;;;;0.50;77.42;102994.26;1765593;80;25838;-61
2022/12/04 07:18:52;;;;;;;23.15;10.60;;;;;;;0.52;77.29;102988.97;1764180;80;26157;-61
2022/12/04 07:21:23;;;;;;;15.88;9.38;;;;;;;0.53;77.24;102990.73;1765572;80;25779;-60
2022/12/04 07:23:53;;;;;;;21.82;10.13;;;;;;;0.55;76.83;102988.91;1763265;80;27480;-62
2022/12/04 07:26:20;;;;;;;18.82;9.43;;;;;;;0.57;76.92;102998.63;1765266;78;26310;-60
2022/12/04 07:28:48;;;;;;;17.60;10.28;;;;;;;0.61;76.80;102993.70;1765171;79;25725;-60
2022/12/04 07:31:19;;;;;;;16.35;9.00;;;;;;;0.63;76.36;103000.30;1765798;81;25730;-61
2022/12/04 07:33:47;;;;;;;16.82;9.98;;;;;;;0.61;76.40;103006.09;1765196;79;25651;-61
2022/12/04 07:36:18;;;;;;;21.27;9.45;;;;;;;0.61;76.31;103001.66;1797684;77;27632;-61
2022/12/04 07:38:46;;;;;;;16.77;9.80;;;;;;;0.61;76.12;103000.79;1788527;79;25654;-62
2022/12/04 07:41:14;;;;;;;18.45;10.23;;;;;;;0.60;76.01;103003.01;1804672;77;25789;-61
2022/12/04 07:43:41;;;;;;;17.77;9.33;;;;;;;0.55;76.04;103000.83;1790167;79;26124;-63
2022/12/04 07:46:22;;;;;;;18.23;10.05;;;;;;;0.60;76.14;103002.55;1784408;77;25774;-61
2022/12/04 07:48:49;;;;;;;16.05;9.65;;;;;;;0.67;76.08;103007.80;1795964;79;27480;-62
2022/12/04 07:51:20;;;;;;;19.30;10.72;;;;;;;0.67;75.74;103006.47;1807908;77;25711;-62
2022/12/04 07:53:49;;;;;;;18.15;9.20;;;;;;;0.70;75.59;103010.39;1804735;77;25737;-61
2022/12/04 07:56:17;;;;;;;16.73;9.55;;;;;;;0.77;75.30;103008.99;1814327;79;25783;-61
2022/12/04 07:58:45;;;;;;;15.85;9.25;;;;;;;0.81;74.96;103009.83;1802060;79;25819;-62
2022/12/04 08:01:21;;;;;;;17.02;9.95;;;;;;;0.83;74.62;103015.10;1811217;77;27366;-62
2022/12/04 08:03:52;;;;;;;20.60;9.20;;;;;;;0.80;74.47;103027.95;1813497;79;25713;-61
2022/12/04 08:06:23;;;;;;;20.23;9.05;;;;;;;0.80;74.48;103012.51;1814186;79;25496;-62
2022/12/04 08:08:52;;;;;;;15.50;9.68;;;;;;;0.83;74.60;103020.41;1802331;79;25739;-62
2022/12/04 08:11:23;;;;;;;14.78;9.05;;;;;;;0.85;74.54;103025.25;1789613;78;25825;-62
2022/12/04 08:14:01;;;;;;;17.62;9.10;;;;;;;0.85;74.25;103013.32;1803161;78;27494;-62
2022/12/04 08:16:30;;;;;;;18.48;8.63;;;;;;;0.85;74.43;103014.19;1813048;79;25825;-63
2022/12/04 08:18:58;;;;;;;18.45;9.90;;;;;;;0.88;74.43;103009.32;1797462;77;25821;-62
2022/12/04 08:21:28;;;;;;;31.05;10.80;;;;;;;0.88;74.43;103011.97;1801023;77;25769;-62
2022/12/04 08:23:59;;;;;;;19.45;10.05;;;;;;;0.91;74.40;103003.53;1802653;77;25821;-62
2022/12/04 08:26:29;;;;;;;18.17;9.25;;;;;;;0.88;74.45;103000.05;1809164;78;27463;-62
2022/12/04 08:28:57;;;;;;;16.67;10.20;;;;;;;0.93;74.56;102991.14;1816275;77;25642;-62
2022/12/04 08:31:28;;;;;;;15.83;9.38;;;;;;;1.03;74.65;102989.24;1818881;78;25836;-62
2022/12/04 08:33:57;;;;;;;20.82;8.95;;;;;;;1.14;74.13;102990.88;1818976;78;26197;-61
2022/12/04 08:36:27;;;;;;;19.27;8.73;;;;;;;1.18;74.23;102984.20;1819259;78;25701;-62
2022/12/04 08:38:55;;;;;;;18.10;9.40;;;;;;;1.19;74.15;102987.28;1781264;78;27465;-61
2022/12/04 08:41:25;;;;;;;15.38;9.03;;;;;;;1.26;73.92;102984.06;1782566;80;25778;-62
2022/12/04 08:43:54;;;;;;;19.57;9.63;;;;;;;1.29;73.82;102984.50;1764666;80;26787;-62
2022/12/04 08:46:24;;;;;;;20.02;9.65;;;;;;;1.30;74.16;102974.33;1790549;80;25792;-61
2022/12/04 08:48:51;;;;;;;19.60;10.23;;;;;;;1.34;74.04;102974.69;1774020;80;25928;-61
2022/12/04 08:51:28;;;;;;;18.30;10.68;;;;;;;1.35;73.61;102980.42;1777029;80;28202;-61
2022/12/04 08:53:57;;;;;;;21.45;12.10;;;;;;;1.36;73.22;102981.72;1782656;79;25821;-61
2022/12/04 08:56:28;;;;;;;24.77;11.35;;;;;;;1.41;73.34;102982.98;1771793;79;25774;-61
2022/12/04 08:58:58;;;;;;;17.37;10.90;;;;;;;1.40;73.17;102978.14;1794459;78;26127;-62
2022/12/04 09:01:27;;;;;;;16.05;10.13;;;;;;;1.36;72.81;102981.72;1816682;78;25812;-61
2022/12/04 09:03:54;;;;;;;18.20;11.03;;;;;;;1.40;72.87;102986.53;1799307;78;27383;-61
2022/12/04 09:06:22;;;;;;;17.67;10.50;;;;;;;1.44;73.05;102982.05;1769101;80;25730;-61
2022/12/04 09:08:54;;;;;;;20.32;10.13;;;;;;;1.53;72.99;102976.18;1800215;78;25647;-61
2022/12/04 09:11:25;;;;;;;25.08;11.68;;;;;;;1.65;72.75;102980.41;1786627;78;25773;-61
2022/12/04 09:13:52;;;;;;;28.67;11.55;;;;;;;1.71;72.71;102978.13;1797752;78;25838;-62
2022/12/04 09:16:22;;;;;;;20.97;10.55;;;;;;;1.77;72.14;102969.19;1782860;80;28208;-63
2022/12/04 09:18:49;;;;;;;22.25;11.75;;;;;;;1.73;71.65;102976.33;1799491;78;25808;-62
2022/12/04 09:21:19;;;;;;;24.15;11.28;;;;;;;1.72;71.93;102970.59;1802999;77;25809;-62
2022/12/04 09:23:46;;;;;;;15.18;9.88;;;;;;;1.71;71.69;102965.72;1802599;77;25709;-62
2022/12/04 09:26:26;;;;;;;29.37;9.80;;;;;;;1.69;71.71;102969.30;1762571;80;25777;-62
2022/12/04 09:28:55;;;;;;;15.98;9.50;;;;;;;1.70;71.78;102965.75;1807442;77;27670;-62
2022/12/04 09:31:23;;;;;;;19.80;10.48;;;;;;;1.65;71.73;102976.90;1792949;78;25452;-62
2022/12/04 09:33:51;;;;;;;21.15;10.53;;;;;;;1.66;71.70;102970.70;1784607;80;25708;-62
2022/12/04 09:36:18;;;;;;;21.40;8.60;;;;;;;1.72;71.57;102965.28;1795501;78;25929;-62
2022/12/04 09:38:48;;;;;;;17.15;9.53;;;;;;;1.74;71.61;102967.91;1794985;77;26096;-62
2022/12/04 09:41:39;;;;;;;19.73;8.13;;;;;;;1.82;71.58;102968.65;1794622;79;27554;-62
2022/12/04 09:44:29;;;;;;;20.12;8.23;;;;;;;1.91;71.58;102965.84;1809677;78;25697;-63
2022/12/04 09:47:27;;;;;;;20.30;9.73;;;;;;;2.03;71.70;102958.11;1807870;78;25816;-61
2022/12/04 09:50:02;;;;;;;17.40;7.58;;;;;;;2.15;71.65;102951.27;1814443;77;25795;-61
2022/12/04 09:52:49;;;;;;;12.95;8.33;;;;;;;2.18;70.96;102951.23;1806135;78;25791;-60
2022/12/04 09:55:31;;;;;;;13.72;8.63;;;;;;;2.15;70.23;102954.39;1812009;78;27483;-61
2022/12/04 09:58:00;;;;;;;13.22;9.13;;;;;;;2.14;69.89;102949.52;1802633;78;25521;-62
2022/12/04 10:00:30;;;;;;;22.60;9.85;;;;;;;2.07;69.05;102943.00;1824694;78;25714;-62
2022/12/04 10:03:06;;;;;;;17.85;8.88;;;;;;;2.02;69.45;102943.98;1796077;78;25662;-61
2022/12/04 10:05:50;;;;;;;21.60;10.72;;;;;;;1.95;69.29;102942.34;1791140;79;25774;-61
2022/12/04 10:08:42;;;;;;;49.20;24.18;;;;;;;1.92;69.51;102950.81;1765696;79;28607;-61
2022/12/04 10:11:27;;;;;;;20.97;10.98;;;;;;;2.00;69.47;102939.14;1764713;81;25783;-61
2022/12/04 10:14:25;;;;;;;16.15;9.25;;;;;;;2.01;69.02;102948.00;1801747;79;25828;-62
2022/12/04 10:17:08;;;;;;;18.55;9.13;;;;;;;2.01;69.56;102940.89;1743425;79;25708;-62
2022/12/04 10:20:11;;;;;;;18.32;9.95;;;;;;;2.06;69.30;102937.30;1787674;79;26129;-62
2022/12/04 10:23:13;;;;;;;22.30;12.07;;;;;;;1.99;69.36;102932.54;1784240;79;27473;-60
2022/12/04 10:25:42;;;;;;;17.70;9.93;;;;;;;1.97;69.17;102929.89;1755196;81;25714;-60
2022/12/04 10:28:30;;;;;;;23.55;12.10;;;;;;;2.09;69.31;102919.53;1819550;78;25765;-61
2022/12/04 10:31:02;;;;;;;22.77;11.10;;;;;;;2.04;69.23;102921.37;1771653;79;26625;-60
2022/12/04 10:33:51;;;;;;;17.80;10.05;;;;;;;2.00;69.12;102923.67;1794991;78;25771;-60
2022/12/04 10:36:27;;;;;;;16.57;9.68;;;;;;;1.91;69.50;102923.84;1813311;78;27342;-61
2022/12/04 10:38:58;;;;;;;20.00;10.60;;;;;;;1.85;69.57;102921.70;1787319;78;26337;-60
2022/12/04 10:41:48;;;;;;;19.95;9.93;;;;;;;1.87;69.19;102913.73;1783648;77;25848;-61
2022/12/04 10:44:20;;;;;;;16.15;9.75;;;;;;;1.91;69.17;102903.46;1790100;77;26572;-61
2022/12/04 10:46:50;;;;;;;14.30;9.35;;;;;;;1.90;69.08;102915.45;1798780;77;25720;-62
2022/12/04 10:49:22;;;;;;;18.10;8.95;;;;;;;1.82;68.83;102918.22;1807659;77;27470;-61
2022/12/04 10:51:48;;;;;;;20.57;10.28;;;;;;;1.81;68.80;102918.69;1802418;78;25756;-61
2022/12/04 10:54:33;;;;;;;15.75;9.40;;;;;;;1.75;69.28;102908.63;1805428;78;25860;-61
2022/12/04 10:57:05;;;;;;;;;;;;;;;1.78;69.54;102916.08;1804260;79;25724;-61
2022/12/04 10:59:32;;;;;;;22.42;9.65;;;;;;;1.81;69.64;102925.33;1788565;79;25766;-61
2022/12/04 11:02:13;;;;;;;17.12;9.65;;;;;;;1.76;69.65;102912.56;1795955;79;28428;-61
2022/12/04 11:04:40;;;;;;;20.68;10.75;;;;;;;1.75;69.63;102906.83;1774774;79;25984;-61
2022/12/04 11:07:21;;;;;;;15.20;9.63;;;;;;;1.65;69.62;102903.94;1778472;79;25786;-60
2022/12/04 11:10:04;;;;;;;18.25;11.25;;;;;;;1.64;69.62;102910.14;1788995;78;26422;-60
2022/12/04 11:12:32;;;;;;;21.40;11.25;;;;;;;1.55;69.82;102913.38;1793729;79;25884;-61
2022/12/04 11:15:07;;;;;;;25.55;10.30;;;;;;;1.50;70.13;102911.22;1783567;79;27645;-62
2022/12/04 11:17:34;;;;;;;20.50;9.28;;;;;;;1.52;70.32;102912.08;1770072;81;25691;-61
2022/12/04 11:20:05;;;;;;;20.35;10.75;;;;;;;1.51;70.22;102913.45;1770567;79;25766;-60
2022/12/04 11:22:34;;;;;;;19.98;11.40;;;;;;;1.45;70.32;102901.58;1776628;79;26045;-62
2022/12/04 11:25:01;;;;;;;17.75;9.43;;;;;;;1.50;70.36;102900.61;1793743;78;25807;-60
2022/12/04 11:27:33;;;;;;;22.00;9.90;;;;;;;1.55;70.13;102890.82;1770677;81;28038;-62
2022/12/04 11:30:13;;;;;;;17.52;9.20;;;;;;;1.57;70.21;102892.11;1786674;77;26429;-62
2022/12/04 11:32:44;;;;;;;26.68;11.28;;;;;;;1.60;70.12;102892.07;1813480;79;25728;-64
2022/12/04 11:35:21;;;;;;;19.87;9.75;;;;;;;1.65;70.29;102889.34;1811612;77;25792;-62
2022/12/04 11:38:05;;;;;;;18.60;9.98;;;;;;;1.72;70.49;102885.20;1803353;79;25761;-62
2022/12/04 11:40:35;;;;;;;18.60;9.95;;;;;;;1.74;70.11;102887.86;1798788;77;27524;-62
2022/12/04 11:43:07;;;;;;;21.20;10.88;;;;;;;1.79;70.27;102886.45;1785613;79;25761;-61
2022/12/04 11:45:34;;;;;;;31.42;11.48;;;;;;;1.79;69.83;102887.31;1778322;79;25817;-62
2022/12/04 11:48:15;;;;;;;17.73;11.05;;;;;;;1.69;69.79;102889.27;1785756;77;25737;-61
2022/12/04 11:51:30;;;;;;;21.95;9.65;;;;;;;1.63;69.72;102891.14;1791068;79;25461;-60
2022/12/04 11:54:43;;;;;;;19.10;10.30;;;;;;;1.54;69.88;102889.50;1794084;79;28480;-62
2022/12/04 11:57:24;;;;;;;22.50;9.50;;;;;;;1.50;69.96;102886.02;1781390;77;25868;-61
2022/12/04 12:00:18;;;;;;;17.50;10.00;;;;;;;1.49;69.94;102887.38;1802978;77;25833;-61
2022/12/04 12:03:12;;;;;;;17.60;9.53;;;;;;;1.48;70.10;102896.24;1788511;79;25778;-61
2022/12/04 12:06:13;;;;;;;18.37;9.47;;;;;;;1.50;70.35;102893.12;1782105;79;25702;-62
2022/12/04 12:08:57;;;;;;;18.20;9.05;;;;;;;1.58;70.45;102889.89;1801722;79;27679;-61
2022/12/04 12:11:41;;;;;;;17.75;9.88;;;;;;;1.62;70.21;102889.38;1813188;79;25913;-60